createdAt,value
2024-03-11T00:03:28.933Z,22.85
2024-03-11T00:07:35.057Z,24.48
2024-03-11T00:11:36.891Z,23.90
2024-03-11T00:15:40.966Z,23.90
2024-03-11T00:19:42.999Z,23.80
2024-03-11T00:23:44.900Z,24.12
2024-03-11T00:27:46.880Z,24.37
2024-03-11T00:31:51.111Z,24.45
2024-03-11T00:35:52.916Z,25.67
2024-03-11T00:39:54.678Z,24.48
2024-03-11T00:43:56.939Z,24.42
2024-03-11T00:47:58.909Z,24.90
2024-03-11T00:52:01.805Z,25.62
2024-03-11T00:56:03.714Z,26.42
2024-03-11T01:00:07.287Z,26.67
2024-03-11T01:04:10.661Z,26.37
2024-03-11T01:08:12.592Z,27.95
2024-03-11T01:12:14.796Z,29.10
2024-03-11T01:16:16.664Z,29.58
2024-03-11T01:20:18.556Z,30.55
2024-03-11T01:24:21.280Z,28.98
2024-03-11T01:28:23.107Z,30.70
2024-03-11T01:32:25.036Z,31.37
2024-03-11T01:36:27.048Z,30.65
2024-03-11T01:40:28.958Z,30.58
2024-03-11T01:44:32.377Z,33.22
2024-03-11T01:48:34.643Z,32.22
2024-03-11T01:52:46.672Z,31.15
2024-03-11T01:56:50.500Z,30.85
2024-03-11T02:00:53.029Z,31.58
2024-03-11T02:04:54.775Z,33.25
2024-03-11T02:08:56.591Z,31.75
2024-03-11T02:13:00.537Z,31.92
2024-03-11T02:17:05.605Z,32.20
2024-03-11T02:21:07.508Z,31.62
2024-03-11T02:25:09.317Z,30.80
2024-03-11T02:29:11.258Z,31.85
2024-03-11T02:33:13.137Z,32.97
2024-03-11T02:37:15.030Z,33.78
2024-03-11T02:41:17.171Z,34.10
2024-03-11T02:45:20.685Z,34.55
2024-03-11T02:49:23.624Z,34.70
2024-03-11T02:53:29.501Z,34.88
2024-03-11T02:57:31.277Z,34.13
2024-03-11T03:01:33.277Z,35.25
2024-03-11T03:05:35.163Z,35.20
2024-03-11T03:09:37.768Z,37.28
2024-03-11T03:13:40.638Z,35.17
2024-03-11T03:17:42.584Z,37.00
2024-03-11T03:21:44.470Z,36.40
2024-03-11T03:25:46.304Z,37.75
2024-03-11T03:29:48.143Z,38.47
2024-03-11T03:33:51.167Z,38.30
2024-03-11T03:37:54.527Z,37.88
2024-03-11T03:41:56.836Z,38.35
2024-03-11T03:46:00.066Z,36.90
2024-03-11T03:50:03.839Z,36.35
2024-03-11T03:54:05.920Z,36.15
2024-03-11T03:58:08.936Z,38.88
2024-03-11T04:02:10.860Z,38.45
2024-03-11T04:06:12.949Z,37.38
2024-03-11T04:10:16.155Z,37.63
2024-03-11T04:14:18.736Z,37.00
2024-03-11T04:18:21.396Z,38.60
2024-03-11T04:22:23.198Z,35.58
2024-03-11T04:26:25.045Z,38.25
2024-03-11T04:30:36.070Z,37.80
2024-03-11T04:34:40.372Z,37.67
2024-03-11T04:38:42.358Z,38.10
2024-03-11T04:42:44.224Z,40.35
2024-03-11T04:46:45.984Z,39.47
2024-03-11T04:50:48.900Z,38.30
2024-03-11T04:54:51.808Z,40.75
2024-03-11T04:58:53.614Z,39.33
2024-03-11T05:02:57.162Z,39.78
2024-03-11T05:06:59.461Z,39.17
2024-03-11T05:11:01.748Z,38.67
2024-03-11T05:15:06.418Z,37.08
2024-03-11T05:19:08.196Z,37.95
2024-03-11T05:23:10.134Z,37.50
2024-03-11T05:27:11.976Z,40.67
2024-03-11T05:31:13.788Z,38.72
2024-03-11T05:35:16.429Z,39.00
2024-03-11T05:39:18.743Z,40.12
2024-03-11T05:43:20.665Z,38.15
2024-03-11T05:47:25.794Z,40.78
2024-03-11T05:51:32.237Z,40.33
2024-03-11T05:55:34.337Z,39.70
2024-03-11T05:59:36.784Z,40.55
2024-03-11T06:03:38.558Z,41.42
2024-03-11T06:07:40.283Z,41.50
2024-03-11T06:11:45.898Z,41.37
2024-03-11T06:15:47.789Z,41.53
2024-03-11T06:19:49.753Z,42.92
2024-03-11T06:23:51.608Z,43.45
2024-03-11T06:27:53.511Z,44.20
2024-03-11T06:31:56.330Z,42.78
2024-03-11T06:35:58.121Z,44.72
2024-03-11T06:39:59.922Z,42.50
2024-03-11T06:44:02.402Z,45.08
2024-03-11T06:48:04.473Z,45.65
2024-03-11T06:52:08.444Z,45.97
2024-03-11T06:56:12.614Z,45.20
2024-03-11T07:00:20.780Z,43.95
2024-03-11T07:04:22.638Z,44.88
2024-03-11T07:08:24.987Z,44.72
2024-03-11T07:12:26.799Z,42.25
2024-03-11T07:16:28.740Z,44.90
2024-03-11T07:20:30.588Z,43.83
2024-03-11T07:24:33.009Z,43.05
2024-03-11T07:28:35.346Z,44.45
2024-03-11T07:32:37.635Z,44.55
2024-03-11T07:36:39.622Z,44.42
2024-03-11T07:40:44.192Z,43.03
2024-03-11T07:44:47.904Z,42.28
2024-03-11T07:48:49.841Z,42.05
2024-03-11T07:52:51.879Z,41.88
2024-03-11T07:56:53.712Z,41.70
2024-03-11T08:00:55.495Z,41.35
2024-03-11T08:04:57.281Z,41.88
2024-03-11T08:08:59.492Z,40.70
2024-03-11T08:13:01.692Z,40.47
2024-03-11T08:17:07.409Z,39.28
2024-03-11T08:21:11.468Z,38.88
2024-03-11T08:25:16.985Z,39.42
2024-03-11T08:29:19.067Z,38.25
2024-03-11T08:33:21.456Z,37.65
2024-03-11T08:37:23.333Z,37.40
2024-03-11T08:41:25.338Z,37.38
2024-03-11T08:45:33.082Z,37.60
2024-03-11T08:49:34.882Z,35.22
2024-03-11T08:53:36.910Z,35.38
2024-03-11T08:57:38.943Z,34.10
2024-03-11T09:01:45.874Z,32.85
2024-03-11T09:05:48.884Z,31.60
2024-03-11T09:09:50.789Z,31.40
2024-03-11T09:13:52.670Z,32.30
2024-03-11T09:17:55.459Z,31.98
2024-03-11T09:21:58.923Z,31.85
2024-03-11T09:26:02.908Z,30.45
2024-03-11T09:30:05.700Z,31.60
2024-03-11T09:34:08.422Z,29.92
2024-03-11T09:38:10.756Z,30.52
2024-03-11T09:42:14.387Z,30.27
2024-03-11T09:46:21.356Z,30.45
2024-03-11T09:50:28.104Z,28.52
2024-03-11T09:54:30.233Z,28.12
2024-03-11T09:58:33.655Z,29.05
2024-03-11T10:02:35.798Z,29.55
2024-03-11T10:06:41.252Z,30.58
2024-03-11T10:11:03.006Z,29.05
2024-03-11T10:15:07.484Z,29.17
2024-03-11T10:19:15.690Z,28.77
2024-03-11T10:23:19.310Z,30.45
2024-03-11T10:27:40.841Z,28.75
2024-03-11T10:31:46.028Z,27.35
2024-03-11T10:35:47.768Z,28.20
2024-03-11T10:39:50.001Z,27.58
2024-03-11T10:43:56.120Z,27.67
2024-03-11T10:48:10.670Z,28.42
2024-03-11T10:52:17.896Z,27.75
2024-03-11T10:56:21.562Z,27.58
2024-03-11T11:00:24.320Z,28.95
2024-03-11T11:04:35.914Z,29.35
2024-03-11T11:08:38.528Z,28.30
2024-03-11T11:12:43.200Z,30.73
2024-03-11T11:16:46.468Z,28.83
2024-03-11T11:20:50.897Z,39.05
2024-03-11T11:24:53.340Z,30.00
2024-03-11T11:29:17.270Z,28.30
2024-03-11T11:34:00.971Z,29.52
2024-03-11T11:38:24.903Z,30.08
2024-03-11T11:42:41.934Z,32.63
2024-03-11T11:46:45.792Z,31.87
2024-03-11T11:50:47.577Z,30.95
2024-03-11T11:54:51.177Z,29.27
2024-03-11T11:59:02.034Z,30.00
2024-03-11T12:03:05.836Z,28.50
2024-03-11T12:07:10.905Z,28.45
2024-03-11T12:11:20.577Z,28.27
2024-03-11T12:15:23.992Z,27.62
2024-03-11T12:19:27.259Z,29.40
2024-03-11T12:23:29.171Z,27.40
2024-03-11T12:27:31.942Z,27.30
2024-03-11T12:31:38.400Z,28.87
2024-03-11T12:35:44.870Z,28.35
2024-03-11T12:43:50.710Z,22.83
2024-03-11T12:47:52.553Z,18.48
2024-03-11T12:52:14.042Z,16.58
2024-03-11T12:56:17.293Z,12.98
2024-03-11T13:00:25.618Z,9.05
2024-03-11T13:04:29.236Z,7.55
2024-03-11T13:08:32.916Z,4.82
2024-03-11T13:12:34.701Z,3.67
2024-03-11T13:16:38.693Z,3.80
2024-03-11T13:20:40.905Z,3.33
2024-03-11T13:24:42.721Z,3.60
2024-03-11T13:28:44.634Z,3.62
2024-03-11T13:32:46.409Z,3.15
2024-03-11T13:36:50.365Z,3.40
2024-03-11T13:40:52.150Z,3.25
2024-03-11T13:44:55.689Z,3.72
2024-03-11T13:48:58.067Z,2.97
2024-03-11T13:52:59.798Z,2.58
2024-03-11T13:57:01.617Z,2.85
2024-03-11T14:01:06.558Z,2.45
2024-03-11T14:05:09.551Z,2.60
2024-03-11T14:09:18.768Z,3.78
2024-03-11T14:13:21.843Z,2.22
2024-03-11T14:17:23.741Z,2.25
2024-03-11T14:21:26.078Z,2.87
2024-03-11T14:25:32.019Z,3.33
2024-03-11T14:29:36.094Z,4.65
2024-03-11T14:33:37.831Z,5.43
2024-03-11T14:37:40.599Z,5.43
2024-03-11T14:41:45.016Z,5.62
2024-03-11T14:45:49.076Z,4.90
2024-03-11T14:49:50.970Z,6.15
2024-03-11T14:53:56.576Z,6.72
2024-03-11T14:57:58.372Z,7.75
2024-03-11T15:02:00.758Z,8.60
2024-03-11T15:06:04.774Z,7.65
2024-03-11T15:10:07.033Z,7.35
2024-03-11T15:14:11.433Z,6.65
2024-03-11T15:18:18.115Z,5.95
2024-03-11T15:22:20.489Z,6.47
2024-03-11T15:26:31.085Z,6.10
2024-03-11T15:30:38.048Z,5.65
2024-03-11T15:34:42.673Z,7.20
2024-03-11T15:38:44.500Z,5.85
2024-03-11T15:42:46.248Z,5.87
2024-03-11T15:46:48.639Z,5.25
2024-03-11T15:50:50.594Z,6.15
2024-03-11T15:54:52.825Z,5.78
2024-03-11T15:58:54.633Z,4.95
2024-03-11T16:02:57.505Z,4.65
2024-03-11T16:06:59.330Z,4.22
2024-03-11T16:11:01.191Z,3.20
2024-03-11T16:15:03.367Z,3.40
2024-03-11T16:19:06.551Z,2.65
2024-03-11T16:23:09.857Z,2.67
2024-03-11T16:27:11.657Z,2.45
2024-03-11T16:31:13.661Z,2.67
2024-03-11T16:35:16.572Z,2.53
2024-03-11T16:39:18.407Z,1.70
2024-03-11T16:43:21.545Z,1.80
2024-03-11T16:47:27.421Z,1.87
2024-03-11T16:51:33.472Z,2.00
2024-03-11T16:55:36.934Z,1.50
2024-03-11T16:59:38.696Z,2.15
2024-03-11T17:03:40.467Z,2.40
2024-03-11T17:07:45.496Z,2.50
2024-03-11T17:11:48.714Z,2.22
2024-03-11T17:15:51.026Z,2.60
2024-03-11T17:19:53.396Z,3.95
2024-03-11T17:23:55.545Z,3.33
2024-03-11T17:28:04.352Z,2.97
2024-03-11T17:32:06.351Z,3.00
2024-03-11T17:36:08.624Z,3.72
2024-03-11T17:40:11.582Z,3.10
2024-03-11T17:44:13.384Z,3.05
2024-03-11T17:48:22.363Z,3.22
2024-03-11T17:52:24.650Z,2.87
2024-03-11T17:56:26.394Z,3.62
2024-03-11T18:00:29.503Z,3.40
2024-03-11T18:04:34.260Z,3.62
2024-03-11T18:08:39.106Z,3.60
2024-03-11T18:12:43.778Z,4.22
2024-03-11T18:16:48.026Z,4.37
2024-03-11T18:20:53.155Z,4.75
2024-03-11T18:24:56.380Z,5.07
2024-03-11T18:28:58.637Z,4.80
2024-03-11T18:33:02.287Z,5.50
2024-03-11T18:37:07.413Z,6.05
2024-03-11T18:41:09.234Z,6.40
2024-03-11T18:45:11.489Z,7.00
2024-03-11T18:49:13.541Z,6.03
2024-03-11T18:53:15.333Z,6.80
2024-03-11T18:57:18.153Z,6.28
2024-03-11T19:01:22.191Z,7.68
2024-03-11T19:05:27.434Z,7.68
2024-03-11T19:09:29.796Z,6.97
2024-03-11T19:13:32.092Z,6.87
2024-03-11T19:17:35.798Z,7.65
2024-03-11T19:21:39.337Z,7.10
2024-03-11T19:25:43.878Z,6.53
2024-03-11T19:29:51.546Z,6.82
2024-03-11T19:33:53.276Z,5.85
2024-03-11T19:38:35.667Z,5.97
2024-03-11T19:42:56.052Z,6.28
2024-03-11T19:47:48.814Z,5.82
2024-03-11T19:52:26.448Z,5.40
2024-03-11T19:56:52.980Z,5.60
2024-03-11T20:01:12.840Z,6.10
2024-03-11T20:06:08.169Z,4.93
2024-03-11T20:10:48.375Z,5.72
2024-03-11T20:14:52.724Z,5.43
2024-03-11T20:19:33.469Z,5.60
2024-03-11T20:24:12.754Z,5.80
2024-03-11T20:28:39.848Z,6.18
2024-03-11T20:33:06.627Z,5.80
2024-03-11T20:37:11.810Z,5.90
2024-03-11T20:41:14.810Z,7.20
2024-03-11T20:45:18.273Z,7.43
2024-03-11T20:49:20.148Z,7.47
2024-03-11T20:53:24.241Z,9.07
2024-03-11T20:57:52.356Z,9.18
2024-03-11T21:01:54.294Z,9.75
2024-03-11T21:05:57.419Z,9.50
2024-03-11T21:09:59.196Z,10.27
2024-03-11T21:14:01.313Z,8.88
2024-03-11T21:18:09.618Z,8.75
2024-03-11T21:22:14.109Z,8.10
2024-03-11T21:26:18.934Z,7.93
2024-03-11T21:30:23.111Z,6.93
2024-03-11T21:34:25.462Z,7.00
2024-03-11T21:38:30.509Z,6.15
2024-03-11T21:42:33.423Z,6.90
2024-03-11T21:46:35.250Z,7.35
2024-03-11T21:50:37.016Z,8.10
2024-03-11T21:54:39.381Z,7.85
2024-03-11T21:58:41.146Z,8.77
2024-03-11T22:02:47.690Z,9.23
2024-03-11T22:06:53.058Z,8.85
2024-03-11T22:10:55.095Z,9.82
2024-03-11T22:15:00.616Z,9.95
2024-03-11T22:19:02.422Z,10.13
2024-03-11T22:23:05.026Z,10.93
2024-03-11T22:27:07.084Z,11.12
2024-03-11T22:31:09.650Z,10.35
2024-03-11T22:35:12.269Z,10.95
2024-03-11T22:39:14.064Z,11.25
2024-03-11T22:43:16.735Z,11.90
2024-03-11T22:47:18.437Z,11.88
2024-03-11T22:51:20.166Z,12.27
2024-03-11T22:55:21.969Z,13.40
2024-03-11T22:59:23.789Z,13.50
2024-03-11T23:03:26.544Z,14.23
2024-03-11T23:07:29.086Z,14.85
2024-03-11T23:11:30.912Z,13.80
2024-03-11T23:15:35.888Z,15.98
2024-03-11T23:19:38.006Z,16.90
2024-03-11T23:23:41.267Z,16.75
2024-03-11T23:27:43.043Z,17.05
2024-03-11T23:31:45.554Z,16.75
2024-03-11T23:35:48.032Z,16.35
2024-03-11T23:39:50.342Z,17.42
2024-03-11T23:43:52.665Z,17.15
2024-03-11T23:48:04.627Z,16.83
2024-03-11T23:52:06.924Z,17.60
2024-03-11T23:56:09.912Z,18.20
